Time;durP1;ratioP1;P1;durP2;ratioP2;P2;SDS_P1;SDS_P2;PMS_P1;PMS_P2;Temp;Humidity;BMP_temperature;BMP_pressure;BME280_temperature;BME280_humidity;BME280_pressure;Samples;Min_cycle;Max_cycle;Signal;HPM_P1;HPM_P2
2021/11/16 00:01:08;;;;;;;;;;;;;;;;;;;;;
2021/11/16 00:03:50;;;;;;;;;;;;;;;6.47;99.39;93013.97;6247415;23;20103;-92
2021/11/16 00:06:37;;;;;;;;;;;;;;;;;;;;;
2021/11/16 00:09:19;;;;;;;;;;;;;;;;;;;;;
2021/11/16 00:12:32;;;;;;;;;;;;;;;;;;;;;
2021/11/16 00:15:18;;;;;;;;;;;;;;;;;;;;;
2021/11/16 00:18:55;;;;;;;;;;;;;;;;;;;;;
2021/11/16 00:25:18;;;;;;;5.65;2.75;;;;;;;6.29;99.50;92991.72;6186005;23;20441;-92
2021/11/16 00:28:51;;;;;;;;;;;;;;;;;;;;;
2021/11/16 00:32:13;;;;;;;;;;;;;;;;;;;;;
2021/11/16 00:35:06;;;;;;;;;;;;;;;;;;;;;
2021/11/16 00:38:11;;;;;;;4.90;2.45;;;;;;;6.16;99.72;92984.31;6247169;23;20055;-91
2021/11/16 00:47:04;;;;;;;;;;;;;;;;;;;;;
2021/11/16 00:50:25;;;;;;;;;;;;;;;;;;;;;
2021/11/16 00:53:24;;;;;;;4.40;2.38;;;;;;;5.87;99.62;92987.13;6205563;23;20016;-92
2021/11/16 01:03:52;;;;;;;5.53;2.70;;;;;;;5.67;98.63;92987.69;6212674;23;20016;-91
2021/11/16 01:06:54;;;;;;;4.78;2.35;;;;;;;5.61;98.59;92973.88;6200857;23;20004;-93
2021/11/16 01:12:54;;;;;;;4.13;2.13;;;;;;;5.51;98.34;92978.94;6207501;23;20016;-93
2021/11/16 01:16:01;;;;;;;;;;;;;;;;;;;;;
2021/11/16 01:19:01;;;;;;;7.22;2.38;;;;;;;5.43;98.23;92976.78;6200562;23;20027;-92
2021/11/16 01:22:29;;;;;;;4.90;2.65;;;;;;;5.41;97.98;92979.63;6224982;23;20373;-93
2021/11/16 01:25:44;;;;;;;4.20;2.10;;;;;;;5.36;98.55;92976.19;6224831;23;20107;-93
2021/11/16 01:28:43;;;;;;;4.20;2.05;;;;;;;5.35;98.15;92970.19;6190056;23;20070;-93
2021/11/16 01:38:42;;;;;;;8.55;2.53;;;;;;;5.28;98.63;92958.44;6182846;23;20396;-92
2021/11/16 01:42:07;;;;;;;;;;;;;;;;;;;;;
2021/11/16 01:45:08;;;;;;;5.10;2.30;;;;;;;5.21;99.25;92967.16;6243113;23;20012;-93
2021/11/16 01:48:01;;;;;;;5.10;2.53;;;;;;;5.32;99.85;92972.50;6198533;23;20050;-93
2021/11/16 01:51:22;;;;;;;;;;;;;;;;;;;;;
2021/11/16 02:01:50;;;;;;;4.55;2.35;;;;;;;5.31;99.71;92942.34;6244823;23;20022;-92
2021/11/16 02:04:49;;;;;;;;;;;;;;;;;;;;;
2021/11/16 02:08:11;;;;;;;4.45;2.28;;;;;;;5.28;99.23;92938.44;6226284;23;20091;-92
2021/11/16 02:11:31;;;;;;;;;;;;;;;;;;;;;
2021/11/16 02:14:23;;;;;;;4.55;2.35;;;;;;;5.24;99.72;92936.56;6229773;23;20051;-92
2021/11/16 02:17:07;;;;;;;4.95;2.30;;;;;;;5.18;99.54;92928.72;6220616;23;20027;-93
2021/11/16 02:20:15;;;;;;;;;;;;;;;;;;;;;
2021/11/16 02:23:43;;;;;;;5.32;2.58;;;;;;;5.11;99.94;92919.53;6243615;23;20012;-92
2021/11/16 02:26:42;;;;;;;;;;;;;;;;;;;;;
2021/11/16 02:32:59;;;;;;;;;;;;;;;;;;;;;
2021/11/16 02:36:07;;;;;;;;;;;;;;;;;;;;;
2021/11/16 02:39:01;;;;;;;;;;;;;;;;;;;;;
2021/11/16 02:42:12;;;;;;;6.60;2.75;;;;;;;5.34;100.00;92927.09;6246981;23;20408;-93
2021/11/16 02:45:41;;;;;;;;;;;;;;;;;;;;;
2021/11/16 02:48:44;;;;;;;5.43;2.47;;;;;;;5.35;100.00;92914.91;6246166;23;20618;-92
2021/11/16 02:51:46;;;;;;;;;;;;;;;;;;;;;
2021/11/16 02:54:43;;;;;;;6.05;2.33;;;;;;;5.31;100.00;92909.38;6220799;23;20332;-93
2021/11/16 02:57:52;;;;;;;3.33;1.90;;;;;;;5.25;100.00;92901.81;6196499;23;20074;-91
2021/11/16 03:01:06;;;;;;;3.85;2.00;;;;;;;5.21;100.00;92902.28;6206983;23;20086;-93
2021/11/16 03:03:50;;;;;;;8.00;2.47;;;;;;;5.18;99.97;92894.22;6220360;23;20046;-93
2021/11/16 03:06:37;;;;;;;;;;;;;;;;;;;;;
2021/11/16 03:09:43;;;;;;;5.15;2.28;;;;;;;5.23;99.98;92907.25;6226210;23;20086;-91
2021/11/16 03:12:52;;;;;;;6.63;2.70;;;;;;;5.17;99.70;92900.41;6220682;23;20036;-93
2021/11/16 03:15:23;;;;;;;4.60;2.00;;;;;;;5.17;99.79;92914.16;6210507;23;20062;-91
2021/11/16 03:18:30;;;;;;;;;;;;;;;;;;;;;
2021/11/16 03:21:33;;;;;;;;;;;;;;;;;;;;;
2021/11/16 03:24:34;;;;;;;5.70;2.22;;;;;;;5.15;99.98;92916.22;6247923;23;20099;-92
2021/11/16 03:27:55;;;;;;;;;;;;;;;;;;;;;
2021/11/16 03:34:44;;;;;;;5.65;2.10;;;;;;;5.17;99.97;92926.38;6209467;23;20542;-92
2021/11/16 03:38:04;;;;;;;;;;;;;;;;;;;;;
2021/11/16 03:44:49;;;;;;;5.47;2.85;;;;;;;5.28;100.00;92937.66;6202463;23;20514;-92
2021/11/16 03:47:53;;;;;;;5.05;2.40;;;;;;;5.16;100.00;92915.22;6214004;23;20090;-93
2021/11/16 03:51:00;;;;;;;;;;;;;;;;;;;;;
2021/11/16 03:54:08;;;;;;;4.10;2.15;;;;;;;5.22;100.00;92929.81;6229118;23;20020;-93
2021/11/16 03:56:50;;;;;;;6.72;2.83;;;;;;;5.12;100.00;92914.13;6221332;23;20501;-93
2021/11/16 03:59:33;;;;;;;4.47;2.28;;;;;;;5.12;100.00;92908.94;6246146;23;20091;-93
2021/11/16 04:02:38;;;;;;;4.30;2.25;;;;;;;5.15;100.00;92913.63;6223277;23;20094;-92
2021/11/16 04:05:46;;;;;;;4.50;2.03;;;;;;;5.06;99.83;92909.09;6214746;22;20081;-92
2021/11/16 04:09:03;;;;;;;;;;;;;;;;;;;;;
2021/11/16 04:11:56;;;;;;;19.48;8.02;;;;;;;5.05;99.74;92915.34;6277363;22;20439;-92
2021/11/16 04:15:10;;;;;;;18.00;6.35;;;;;;;5.01;99.84;92913.19;6254776;22;20392;-93
2021/11/16 04:18:21;;;;;;;8.90;3.60;;;;;;;4.91;100.00;92896.72;6206869;22;20020;-92
2021/11/16 04:21:09;;;;;;;;;;;;;;;;;;;;;
2021/11/16 04:24:18;;;;;;;;;;;;;;;;;;;;;
2021/11/16 04:31:35;;;;;;;;;;;;;;;;;;;;;
2021/11/16 04:35:24;;;;;;;;;;;;;;;;;;;;;
2021/11/16 04:38:03;;;;;;;10.30;2.33;;;;;;;4.78;100.00;92898.66;6239511;22;20019;-94
2021/11/16 04:41:01;;;;;;;4.78;2.10;;;;;;;4.71;100.00;92887.69;6228912;22;20073;-93
2021/11/16 04:44:07;;;;;;;;;;;;;;;;;;;;;
2021/11/16 04:47:32;;;;;;;;;;;;;;;;;;;;;
2021/11/16 05:03:53;;;;;;;;;;;;;;;;;;;;;
2021/11/16 05:06:54;;;;;;;4.25;2.03;;;;;;;4.43;100.00;92901.53;6228467;23;20039;-93
2021/11/16 05:10:37;;;;;;;;;;;;;;;;;;;;;
2021/11/16 05:13:43;;;;;;;;;;;;;;;;;;;;;
2021/11/16 05:16:56;;;;;;;4.38;2.38;;;;;;;4.31;100.00;92895.69;6248987;22;20083;-92
2021/11/16 05:26:31;;;;;;;4.22;1.90;;;;;;;4.38;100.00;92893.69;6227098;23;20427;-94
2021/11/16 05:33:30;;;;;;;;;;;;;;;;;;;;;
2021/11/16 05:36:19;;;;;;;;;;;;;;;;;;;;;
2021/11/16 05:39:26;;;;;;;;;;;;;;;;;;;;;
2021/11/16 05:42:36;;;;;;;;;;;;;;;;;;;;;
2021/11/16 05:45:48;;;;;;;;;;;;;;;4.34;100.00;92877.81;6238894;22;20016;-91
2021/11/16 05:48:43;;;;;;;;;;;;;;;;;;;;;
2021/11/16 05:51:23;;;;;;;5.43;2.80;;;;;;;4.30;100.00;92855.22;6245219;23;20022;-91
2021/11/16 05:54:32;;;;;;;4.43;2.10;;;;;;;4.29;100.00;92859.63;6244631;22;20447;-93
2021/11/16 06:03:17;;;;;;;3.78;2.17;;;;;;;4.31;100.00;92861.97;6234330;23;20089;-91
2021/11/16 06:06:08;;;;;;;;;;;;;;;;;;;;;
2021/11/16 06:09:11;;;;;;;8.50;2.40;;;;;;;4.31;100.00;92867.16;6217130;23;20027;-91
2021/11/16 06:12:04;;;;;;;5.55;2.42;;;;;;;4.26;100.00;92856.72;6195352;23;20034;-92
2021/11/16 06:14:45;;;;;;;3.90;2.03;;;;;;;4.35;100.00;92870.84;6224960;23;20377;-92
2021/11/16 06:17:40;;;;;;;4.82;2.10;;;;;;;4.26;100.00;92849.75;6197522;23;20012;-93
2021/11/16 06:20:34;;;;;;;;;;;;;;;;;;;;;
2021/11/16 06:23:31;;;;;;;;;;;;;;;;;;;;;
2021/11/16 06:26:01;;;;;;;5.13;2.20;;;;;;;4.30;100.00;92868.19;6225861;23;20091;-92
2021/11/16 06:29:02;;;;;;;4.93;2.20;;;;;;;4.45;100.00;92880.56;6196577;23;20277;-92
2021/11/16 06:32:12;;;;;;;;;;;;;;;;;;;;;
2021/11/16 06:35:28;;;;;;;5.05;2.30;;;;;;;4.44;100.00;92872.03;6237639;23;20016;-92
2021/11/16 06:39:13;;;;;;;;;;;;;;;;;;;;;
2021/11/16 06:43:14;;;;;;;;;;;;;;;;;;;;;
2021/11/16 06:46:12;;;;;;;;;;;;;;;;;;;;;
2021/11/16 06:49:15;;;;;;;;;;;;;;;;;;;;;
2021/11/16 06:55:54;;;;;;;5.45;2.42;;;;;;;5.14;98.01;92908.69;6209662;23;20444;-93
2021/11/16 06:58:37;;;;;;;8.80;3.20;;;;;;;5.11;98.15;92891.81;6196277;23;20028;-92
2021/11/16 07:06:10;;;;;;;;;;;;;;;;;;;;;
2021/11/16 07:08:50;;;;;;;4.80;2.25;;;;;;;5.84;95.29;92900.06;6247277;22;20015;-93
2021/11/16 07:11:59;;;;;;;5.90;2.70;;;;;;;5.86;95.13;92897.22;6274323;22;20107;-93
2021/11/16 07:15:16;;;;;;;;;;;;;;;;;;;;;
2021/11/16 07:18:20;;;;;;;;;;;;;;;;;;;;;
2021/11/16 07:21:39;;;;;;;;;;;;;;;;;;;;;
2021/11/16 07:31:58;;;;;;;3.75;1.90;;;;;;;13.84;68.25;92911.97;6241414;22;20031;-75
2021/11/16 07:34:24;;;;;;;4.75;2.40;;;;;;;13.32;67.91;92908.81;6241985;23;20008;-76
2021/11/16 07:37:05;;;;;;;4.18;2.08;;;;;;;12.02;68.05;92920.91;6241817;23;20019;-76
2021/11/16 07:39:45;;;;;;;5.07;2.28;;;;;;;10.77;73.79;92912.09;6214546;23;20012;-76
2021/11/16 07:42:11;;;;;;;5.65;2.70;;;;;;;9.91;77.49;92922.13;6214405;23;20091;-76
2021/11/16 07:44:36;;;;;;;5.18;2.80;;;;;;;9.61;79.93;92923.06;6241633;23;20038;-76
2021/11/16 07:47:04;;;;;;;4.25;2.30;;;;;;;9.40;81.37;92929.44;6240253;23;20020;-75
2021/11/16 07:49:29;;;;;;;4.25;2.30;;;;;;;9.20;80.30;92925.84;6214865;23;20004;-76
2021/11/16 07:51:56;;;;;;;4.85;2.28;;;;;;;8.71;79.56;92932.50;6188941;23;20329;-76
2021/11/16 07:54:30;;;;;;;4.80;2.53;;;;;;;8.81;81.73;92926.47;6215219;23;20008;-76
2021/11/16 07:57:05;;;;;;;5.75;2.45;;;;;;;9.42;81.32;92924.72;6240998;23;20008;-76
2021/11/16 07:59:33;;;;;;;5.55;2.47;;;;;;;9.97;78.05;92930.72;6239749;23;20008;-76
2021/11/16 08:04:32;;;;;;;4.32;2.20;;;;;;;10.03;77.56;92921.00;6241745;23;20108;-76
2021/11/16 08:09:40;;;;;;;4.53;2.15;;;;;;;9.87;78.53;92928.19;6215198;23;20004;-76
2021/11/16 08:14:47;;;;;;;5.35;2.55;;;;;;;10.04;78.52;92927.78;6241517;23;20363;-76
2021/11/16 08:17:14;;;;;;;4.55;2.35;;;;;;;10.38;77.24;92930.47;6215591;23;20439;-76
2021/11/16 08:19:41;;;;;;;4.63;2.47;;;;;;;10.83;74.97;92939.03;6241649;23;19996;-76
2021/11/16 08:22:10;;;;;;;4.05;1.85;;;;;;;11.14;74.89;92933.47;6213913;23;20012;-76
2021/11/16 08:24:39;;;;;;;5.25;2.38;;;;;;;11.46;74.23;92938.13;6214969;23;20035;-76
2021/11/16 08:27:10;;;;;;;4.40;2.20;;;;;;;11.59;73.01;92939.25;6241350;23;20451;-76
2021/11/16 08:29:39;;;;;;;4.38;2.28;;;;;;;11.84;72.81;92938.97;6241410;23;20019;-76
2021/11/16 08:32:14;;;;;;;11.48;2.35;;;;;;;11.86;71.92;92936.81;6241902;22;20012;-76
2021/11/16 08:34:45;;;;;;;4.65;2.45;;;;;;;11.58;71.05;92938.47;6241582;23;20316;-76
2021/11/16 08:37:13;;;;;;;8.13;3.08;;;;;;;11.20;72.44;92934.97;6241610;23;20091;-76
2021/11/16 08:39:48;;;;;;;8.40;2.83;;;;;;;10.93;73.10;92941.53;6242651;23;20071;-76
2021/11/16 08:42:21;;;;;;;6.25;2.53;;;;;;;10.75;74.08;92944.84;6214548;23;20008;-75
2021/11/16 08:44:54;;;;;;;5.13;2.55;;;;;;;10.60;74.42;92946.53;6241366;23;20012;-76
2021/11/16 08:47:25;;;;;;;6.53;3.13;;;;;;;10.47;74.49;92941.13;6242091;23;20447;-76
2021/11/16 08:49:51;;;;;;;6.30;2.85;;;;;;;10.33;75.02;92941.75;6214508;23;20018;-76
2021/11/16 08:52:17;;;;;;;4.20;2.47;;;;;;;10.02;76.41;92943.78;6214856;23;20083;-76
2021/11/16 08:54:59;;;;;;;5.85;3.08;;;;;;;9.21;79.44;92944.91;6240943;23;20440;-76
2021/11/16 08:57:26;;;;;;;8.00;3.28;;;;;;;8.92;82.32;92948.91;6241997;23;20470;-75
2021/11/16 08:59:54;;;;;;;7.25;3.40;;;;;;;8.91;83.50;92951.75;6241720;23;20004;-75
2021/11/16 09:02:22;;;;;;;10.25;3.85;;;;;;;8.77;84.00;92946.31;6241969;22;20008;-75
2021/11/16 09:04:48;;;;;;;6.32;3.42;;;;;;;8.72;84.07;92956.75;6242129;23;20379;-75
2021/11/16 09:07:28;;;;;;;5.95;2.95;;;;;;;8.68;85.21;92953.09;6241099;23;20016;-76
2021/11/16 09:10:13;;;;;;;6.38;2.92;;;;;;;8.44;84.75;92937.97;6242874;23;20439;-76
2021/11/16 09:13:00;;;;;;;7.88;3.78;;;;;;;8.52;86.10;92950.50;6244100;23;20363;-75
2021/11/16 09:15:56;;;;;;;6.28;3.28;;;;;;;8.44;86.26;92952.84;6243511;23;20439;-75
2021/11/16 09:18:39;;;;;;;9.88;3.53;;;;;;;8.51;87.67;92943.72;6214904;23;20027;-75
2021/11/16 09:21:16;;;;;;;6.28;3.15;;;;;;;8.32;85.87;92947.84;6243034;22;20008;-75
2021/11/16 09:23:48;;;;;;;6.97;3.75;;;;;;;8.28;88.39;92949.41;6243524;23;20351;-75
2021/11/16 09:29:02;;;;;;;6.95;3.20;;;;;;;8.14;88.25;92943.94;6242970;23;20095;-75
2021/11/16 09:31:38;;;;;;;5.97;2.92;;;;;;;8.04;87.31;92944.72;6243076;22;20023;-75
2021/11/16 09:34:07;;;;;;;5.38;2.60;;;;;;;8.40;86.45;92947.38;6243387;23;20439;-75
2021/11/16 09:36:36;;;;;;;5.32;2.78;;;;;;;8.50;88.62;92949.97;6242992;23;20427;-75
2021/11/16 09:39:16;;;;;;;6.47;2.72;;;;;;;8.26;87.50;92952.31;6243252;23;20023;-75
2021/11/16 09:41:56;;;;;;;5.63;3.10;;;;;;;8.33;88.30;92946.81;6243254;22;20391;-75
2021/11/16 09:44:26;;;;;;;6.93;3.17;;;;;;;8.74;85.72;92945.00;6243874;23;20062;-75
2021/11/16 09:47:03;;;;;;;5.30;2.92;;;;;;;8.10;88.43;92948.88;6242938;23;20601;-75
2021/11/16 09:49:33;;;;;;;8.05;3.40;;;;;;;8.30;88.75;92952.53;6243441;23;20035;-75
2021/11/16 09:52:15;;;;;;;6.00;2.95;;;;;;;8.58;87.99;92953.91;6216050;23;20015;-75
2021/11/16 09:54:59;;;;;;;8.63;3.47;;;;;;;8.55;86.61;92952.56;6243218;23;20032;-74
2021/11/16 09:57:26;;;;;;;6.57;2.95;;;;;;;9.24;85.40;92949.63;6191567;23;20007;-75
2021/11/16 10:00:01;;;;;;;7.40;3.38;;;;;;;8.94;84.20;92953.88;6216631;23;20428;-75
2021/11/16 10:02:30;;;;;;;6.90;3.25;;;;;;;9.33;83.04;92954.00;6243100;22;20020;-75
2021/11/16 10:05:21;;;;;;;5.85;3.20;;;;;;;9.44;82.56;92941.69;6216370;23;20057;-75
2021/11/16 10:07:55;;;;;;;5.82;2.92;;;;;;;9.93;80.31;92946.19;6216490;23;20008;-75
2021/11/16 10:10:26;;;;;;;6.28;3.08;;;;;;;10.52;78.14;92939.28;6215379;22;20447;-75
2021/11/16 10:12:54;;;;;;;10.27;3.08;;;;;;;10.43;77.12;92937.53;6215973;23;20439;-75
2021/11/16 10:15:25;;;;;;;6.28;3.17;;;;;;;10.65;78.04;92940.47;6216298;23;20006;-75
2021/11/16 10:17:52;;;;;;;8.40;3.35;;;;;;;11.06;75.97;92928.84;6215937;23;20019;-75
2021/11/16 10:20:25;;;;;;;6.45;3.65;;;;;;;10.40;76.01;92933.59;6240825;22;20010;-75
2021/11/16 10:22:53;;;;;;;8.98;4.20;;;;;;;9.78;77.06;92933.97;6216110;23;20347;-75
2021/11/16 10:25:22;;;;;;;11.23;4.80;;;;;;;9.86;74.93;92939.66;6242321;23;20012;-75
2021/11/16 10:27:50;;;;;;;11.50;5.20;;;;;;;10.01;74.92;92932.50;6242682;23;20054;-75
2021/11/16 10:30:29;;;;;;;11.07;5.22;;;;;;;9.27;82.06;92931.56;6242261;22;20012;-75
2021/11/16 10:33:11;;;;;;;10.75;5.13;;;;;;;9.46;81.72;92925.75;6215787;23;20396;-75
2021/11/16 10:35:40;;;;;;;18.30;7.38;;;;;;;9.57;76.04;92929.91;6215987;23;20036;-75
2021/11/16 10:38:09;;;;;;;11.20;5.65;;;;;;;9.53;78.82;92927.03;6242364;23;20008;-75
2021/11/16 10:40:36;;;;;;;15.02;6.93;;;;;;;9.31;75.79;92922.16;6241151;22;20411;-76
2021/11/16 10:43:03;;;;;;;14.90;7.10;;;;;;;9.28;75.35;92924.53;6215291;23;20027;-75
2021/11/16 10:45:35;;;;;;;20.08;7.68;;;;;;;9.15;76.64;92931.88;6242533;23;20443;-76
2021/11/16 10:48:08;;;;;;;14.23;6.63;;;;;;;9.11;76.80;92930.81;6215872;23;20018;-75
2021/11/16 10:50:35;;;;;;;13.63;5.85;;;;;;;8.39;84.18;92934.56;6215297;22;20008;-75
2021/11/16 10:53:09;;;;;;;15.07;7.03;;;;;;;8.41;85.00;92932.50;6215639;23;20006;-76
2021/11/16 10:55:36;;;;;;;13.63;7.20;;;;;;;8.58;83.34;92916.56;6243143;23;20031;-76
2021/11/16 10:58:05;;;;;;;16.05;7.40;;;;;;;8.27;86.90;92930.38;6241966;23;20000;-76
2021/11/16 11:00:55;;;;;;;21.85;9.07;;;;;;;8.32;84.18;92934.81;6242958;22;20008;-75
2021/11/16 11:03:25;;;;;;;18.00;8.48;;;;;;;8.53;79.14;92936.41;6216388;23;20083;-76
2021/11/16 11:06:09;;;;;;;19.77;7.88;;;;;;;8.63;80.01;92924.41;6215860;23;20012;-75
2021/11/16 11:08:57;;;;;;;16.58;7.70;;;;;;;8.89;79.87;92927.75;6215416;23;20355;-75
2021/11/16 11:11:32;;;;;;;14.77;7.53;;;;;;;9.15;75.19;92923.25;6216854;23;20081;-75
2021/11/16 11:14:13;;;;;;;16.67;7.90;;;;;;;9.37;75.27;92925.53;6216068;23;20432;-76
2021/11/16 11:16:56;;;;;;;20.57;8.70;;;;;;;9.75;74.42;92918.03;6217297;23;20344;-76
2021/11/16 11:19:31;;;;;;;18.08;7.45;;;;;;;10.05;73.69;92921.53;6216516;23;20165;-76
2021/11/16 11:22:11;;;;;;;16.65;7.45;;;;;;;9.98;72.00;92916.59;6215164;23;20012;-76
2021/11/16 11:25:37;;;;;;;19.20;7.90;;;;;;;10.19;71.08;92914.63;6243348;23;20008;-77
2021/11/16 11:27:33;;;;;;;17.23;7.22;;;;;;;10.37;70.68;92911.38;6225471;23;20479;-75
2021/11/16 11:30:01;;;;;;;16.42;7.85;;;;;;;10.63;71.97;92903.31;6242328;23;20416;-76
2021/11/16 11:32:41;;;;;;;14.55;7.45;;;;;;;10.21;69.56;92899.44;6241499;22;20061;-76
2021/11/16 11:35:13;;;;;;;17.83;8.52;;;;;;;10.65;70.56;92898.59;6216268;23;20008;-76
2021/11/16 11:37:57;;;;;;;19.10;9.40;;;;;;;10.59;69.64;92904.91;6242736;23;20008;-75
2021/11/16 11:40:30;;;;;;;18.13;7.75;;;;;;;10.39;69.26;92904.03;6189694;22;20016;-76
2021/11/16 11:43:01;;;;;;;17.50;7.93;;;;;;;10.56;69.26;92898.41;6215466;23;20015;-76
2021/11/16 11:45:38;;;;;;;17.23;8.00;;;;;;;10.35;70.84;92897.00;6189052;23;20463;-76
2021/11/16 11:48:03;;;;;;;16.65;8.57;;;;;;;10.67;70.47;92887.81;6189487;23;20035;-76
2021/11/16 11:50:39;;;;;;;18.15;7.82;;;;;;;10.56;68.80;92890.56;6241704;22;20042;-76
2021/11/16 11:53:10;;;;;;;15.40;7.10;;;;;;;10.48;69.09;92891.13;6242165;23;20011;-76
2021/11/16 11:55:44;;;;;;;20.00;8.35;;;;;;;10.62;69.76;92878.19;6215567;23;20012;-76
2021/11/16 11:58:11;;;;;;;17.38;7.78;;;;;;;10.29;68.40;92879.78;6215536;23;20012;-76
2021/11/16 12:00:37;;;;;;;15.70;8.27;;;;;;;10.35;71.65;92874.22;6241408;22;20454;-76
2021/11/16 12:03:06;;;;;;;16.42;7.32;;;;;;;10.70;71.09;92868.97;6241562;23;20020;-76
2021/11/16 12:05:33;;;;;;;13.70;7.72;;;;;;;10.95;69.90;92860.84;6242827;23;20000;-75
2021/11/16 12:08:00;;;;;;;14.65;6.65;;;;;;;11.01;70.82;92864.97;6241779;23;20016;-76
2021/11/16 12:10:26;;;;;;;22.20;11.00;;;;;;;10.74;78.21;92864.72;6241474;22;20027;-76
2021/11/16 12:12:53;;;;;;;18.15;8.60;;;;;;;10.12;80.03;92865.22;6214875;23;20436;-75
2021/11/16 12:15:28;;;;;;;23.67;11.35;;;;;;;9.74;83.04;92859.72;6190171;23;20008;-76
2021/11/16 12:17:56;;;;;;;26.48;12.00;;;;;;;9.28;85.01;92865.22;6241887;23;20371;-76
2021/11/16 12:20:53;;;;;;;24.67;11.98;;;;;;;9.24;87.46;92860.78;6241179;22;20004;-76
2021/11/16 12:23:43;;;;;;;28.92;11.52;;;;;;;9.00;87.84;92863.22;6215164;23;20012;-76
2021/11/16 12:26:10;;;;;;;20.63;9.80;;;;;;;9.23;87.06;92862.63;6241565;23;20066;-76
2021/11/16 12:28:37;;;;;;;28.23;12.35;;;;;;;9.34;86.65;92861.53;6244353;23;20000;-77
2021/11/16 12:31:04;;;;;;;25.30;11.15;;;;;;;8.95;86.29;92862.19;6242234;22;20028;-77
2021/11/16 12:33:47;;;;;;;18.92;9.55;;;;;;;8.98;84.84;92860.88;6243793;23;20011;-77
2021/11/16 12:36:38;;;;;;;17.08;8.90;;;;;;;8.85;87.57;92869.25;6242107;23;20012;-77
2021/11/16 12:39:13;;;;;;;20.33;9.38;;;;;;;8.53;86.63;92868.56;6243979;23;20012;-77
2021/11/16 12:41:41;;;;;;;18.92;9.52;;;;;;;8.60;86.05;92862.28;6244633;22;20325;-77
2021/11/16 12:44:08;;;;;;;22.35;8.55;;;;;;;8.39;86.68;92862.28;6246739;23;20036;-77
2021/11/16 12:46:37;;;;;;;23.15;10.80;;;;;;;8.46;86.77;92857.59;6219113;23;20016;-77
2021/11/16 12:49:06;;;;;;;13.82;7.53;;;;;;;8.35;86.51;92850.81;6219508;23;20115;-77
2021/11/16 12:51:34;;;;;;;20.83;10.00;;;;;;;8.44;86.28;92858.91;6219514;23;20012;-77
2021/11/16 12:54:09;;;;;;;19.83;10.07;;;;;;;8.66;86.85;92850.78;6194247;23;20087;-77
2021/11/16 12:56:51;;;;;;;16.90;6.95;;;;;;;8.45;86.46;92853.44;6246563;23;20008;-77
2021/11/16 12:59:16;;;;;;;19.98;8.65;;;;;;;8.32;89.11;92859.94;6219942;23;20431;-77
2021/11/16 13:01:51;;;;;;;21.40;10.88;;;;;;;8.50;87.67;92857.88;6246473;22;20000;-77
2021/11/16 13:04:38;;;;;;;24.73;11.43;;;;;;;8.44;87.75;92862.31;6245996;23;20508;-77
2021/11/16 13:07:25;;;;;;;21.58;11.02;;;;;;;8.58;86.84;92865.19;6246113;23;20008;-77
2021/11/16 13:10:05;;;;;;;20.85;9.52;;;;;;;8.41;86.72;92854.25;6246179;23;20007;-77
2021/11/16 13:12:34;;;;;;;27.15;11.27;;;;;;;8.47;86.50;92856.56;6246272;22;20376;-77
2021/11/16 13:15:20;;;;;;;20.23;9.70;;;;;;;8.19;88.28;92854.47;6246620;23;20008;-77
2021/11/16 13:18:11;;;;;;;22.35;10.40;;;;;;;8.34;88.17;92854.47;6246109;23;20012;-77
2021/11/16 13:20:50;;;;;;;20.83;9.38;;;;;;;8.51;86.56;92841.16;6219502;23;20008;-77
2021/11/16 13:23:20;;;;;;;21.70;10.27;;;;;;;8.55;86.94;92848.19;6219362;23;20040;-77
2021/11/16 13:25:58;;;;;;;20.45;9.75;;;;;;;8.67;85.62;92847.13;6245827;23;20019;-77
2021/11/16 13:31:21;;;;;;;20.48;8.90;;;;;;;8.90;81.23;92846.56;6245759;22;20091;-76
2021/11/16 13:33:59;;;;;;;23.50;10.32;;;;;;;9.00;81.91;92850.16;6246292;23;20008;-77
2021/11/16 13:36:28;;;;;;;18.85;8.82;;;;;;;8.82;82.70;92844.47;6246272;23;20015;-77
2021/11/16 13:39:13;;;;;;;22.17;9.80;;;;;;;8.83;81.32;92840.06;6246865;23;20004;-77
2021/11/16 13:41:38;;;;;;;20.95;10.40;;;;;;;8.60;82.90;92841.41;6245963;22;20008;-77
2021/11/16 13:44:10;;;;;;;25.42;11.55;;;;;;;8.76;82.30;92840.34;6218820;23;20000;-77
2021/11/16 13:46:37;;;;;;;33.67;11.13;;;;;;;8.52;84.12;92833.06;6245537;23;20023;-77
2021/11/16 13:49:04;;;;;;;25.88;11.60;;;;;;;8.60;84.60;92836.19;6245630;23;20058;-77
2021/11/16 13:51:29;;;;;;;27.58;12.05;;;;;;;8.62;84.49;92834.88;6244785;22;20313;-77
2021/11/16 13:53:56;;;;;;;26.25;11.85;;;;;;;8.66;84.33;92837.75;6244206;23;20008;-77
2021/11/16 13:56:22;;;;;;;34.17;11.63;;;;;;;8.41;84.53;92834.13;6217545;23;20059;-77
2021/11/16 13:58:48;;;;;;;25.50;12.15;;;;;;;8.63;83.44;92831.22;6217701;23;20047;-77
2021/11/16 14:01:14;;;;;;;34.00;13.35;;;;;;;8.35;85.22;92829.94;6243045;22;20477;-77
2021/11/16 14:03:40;;;;;;;24.58;11.05;;;;;;;8.21;86.40;92834.13;6217912;23;20034;-77
2021/11/16 14:06:06;;;;;;;27.95;12.35;;;;;;;8.29;85.14;92831.00;6217722;23;20336;-77
2021/11/16 14:08:37;;;;;;;27.38;11.57;;;;;;;8.34;86.06;92828.38;6244478;23;20012;-77
2021/11/16 14:11:06;;;;;;;31.50;12.75;;;;;;;8.28;85.49;92829.44;6217478;23;20027;-77
2021/11/16 14:13:35;;;;;;;25.02;10.98;;;;;;;8.23;85.42;92827.63;6244443;23;20004;-78
2021/11/16 14:16:07;;;;;;;27.67;12.15;;;;;;;8.32;84.72;92827.88;6217537;23;20047;-77
2021/11/16 14:18:33;;;;;;;26.75;11.73;;;;;;;8.26;83.71;92829.72;6217554;23;20392;-77
2021/11/16 14:21:11;;;;;;;33.45;13.27;;;;;;;8.32;84.65;92825.25;6217374;23;20004;-77
2021/11/16 14:23:39;;;;;;;29.65;12.55;;;;;;;8.27;84.17;92823.44;6217181;23;20321;-76
2021/11/16 14:26:07;;;;;;;18.83;8.98;;;;;;;8.35;83.73;92822.13;6244311;23;20309;-77
2021/11/16 14:28:36;;;;;;;29.58;11.93;;;;;;;8.20;85.56;92827.38;6244160;23;20024;-77
2021/11/16 14:31:13;;;;;;;25.80;12.25;;;;;;;8.38;83.83;92823.44;6213894;23;20087;-77
2021/11/16 14:33:40;;;;;;;27.95;12.00;;;;;;;8.39;84.66;92832.81;6215720;23;20416;-77
2021/11/16 14:36:06;;;;;;;31.90;12.85;;;;;;;8.11;86.13;92827.91;6213286;23;20016;-77
2021/11/16 14:38:40;;;;;;;35.05;12.20;;;;;;;8.19;86.26;92831.00;6214486;23;20020;-77
2021/11/16 14:41:15;;;;;;;33.08;13.65;;;;;;;8.37;85.00;92832.28;6213566;23;20008;-77
2021/11/16 14:43:41;;;;;;;26.92;11.00;;;;;;;8.21;86.66;92829.69;6213299;23;20019;-77
2021/11/16 14:46:20;;;;;;;35.13;11.75;;;;;;;8.36;84.52;92828.13;6215708;23;20004;-77
2021/11/16 14:48:57;;;;;;;19.92;10.32;;;;;;;8.37;85.19;92833.06;6213712;23;20012;-77
2021/11/16 14:51:32;;;;;;;27.88;12.35;;;;;;;8.23;85.57;92827.63;6214409;23;20016;-77
2021/11/16 14:54:04;;;;;;;26.13;11.73;;;;;;;8.23;85.29;92829.44;6215130;23;20004;-77
2021/11/16 14:56:32;;;;;;;35.05;13.40;;;;;;;8.07;85.71;92824.25;6215755;23;20103;-77
2021/11/16 14:59:05;;;;;;;25.65;11.98;;;;;;;8.06;85.90;92825.31;6214689;23;20001;-78
2021/11/16 15:01:36;;;;;;;30.77;11.88;;;;;;;7.96;87.21;92840.16;6215483;23;20012;-78
2021/11/16 15:04:10;;;;;;;26.10;12.98;;;;;;;8.04;86.79;92835.19;6214441;23;20013;-77
2021/11/16 15:06:39;;;;;;;31.15;13.27;;;;;;;7.99;86.52;92832.56;6212246;23;20071;-77
2021/11/16 15:09:11;;;;;;;32.38;12.68;;;;;;;8.08;86.34;92833.66;6214501;23;20011;-77
2021/11/16 15:11:38;;;;;;;27.67;12.77;;;;;;;8.00;86.70;92841.97;6213047;23;20043;-77
2021/11/16 15:14:13;;;;;;;28.15;12.15;;;;;;;7.81;87.44;92841.69;6213554;23;20001;-77
2021/11/16 15:16:44;;;;;;;24.02;11.13;;;;;;;7.65;89.00;92838.28;6214240;23;20087;-77
2021/11/16 15:19:14;;;;;;;26.70;11.30;;;;;;;7.57;88.92;92841.44;6211415;23;20012;-77
2021/11/16 15:22:07;;;;;;;28.27;13.00;;;;;;;7.59;88.74;92831.53;6212148;23;20003;-77
2021/11/16 15:27:17;;;;;;;29.23;12.15;;;;;;;7.43;89.56;92837.72;6212240;23;20008;-77
2021/11/16 15:30:20;;;;;;;27.95;12.68;;;;;;;7.48;89.27;92828.13;6211929;23;20621;-77
2021/11/16 15:32:54;;;;;;;24.35;11.25;;;;;;;7.48;89.63;92827.34;6242086;23;20012;-77
2021/11/16 15:35:38;;;;;;;30.63;12.32;;;;;;;7.54;88.75;92826.28;6243117;23;20014;-77
2021/11/16 15:38:05;;;;;;;28.25;12.38;;;;;;;7.52;89.37;92828.41;6242515;23;20094;-77
2021/11/16 15:40:31;;;;;;;28.33;12.30;;;;;;;7.55;89.38;92825.28;6242378;22;20057;-77
2021/11/16 15:43:13;;;;;;;26.35;11.65;;;;;;;7.58;88.98;92827.34;6243576;23;20447;-77
2021/11/16 15:45:51;;;;;;;;;;;;;;;7.56;88.59;92828.66;6243655;23;20030;-78
2021/11/16 15:48:23;;;;;;;22.67;11.38;;;;;;;7.55;89.20;92827.88;6242709;23;19911;-78
2021/11/16 15:51:07;;;;;;;23.35;11.18;;;;;;;7.51;89.07;92837.25;6243995;22;20016;-78
2021/11/16 15:57:26;;;;;;;27.27;12.18;;;;;;;7.55;89.67;92830.47;6242581;23;20016;-77
2021/11/16 15:59:16;;;;;;;24.25;11.43;;;;;;;7.45;89.84;92827.84;6247419;23;20020;-78
2021/11/16 16:01:42;;;;;;;28.13;13.32;;;;;;;7.46;89.16;92826.81;6246395;22;20329;-77
2021/11/16 16:04:09;;;;;;;25.20;12.45;;;;;;;7.46;89.51;92826.81;6243086;23;20020;-77
2021/11/16 16:06:37;;;;;;;28.58;12.20;;;;;;;7.49;89.08;92826.28;6241697;23;20055;-77